Terminal Aerodrome Forecast
Issued by NWS Grand Forks, ND

Home | Current Version | Previous Version | Text Only | Print | Product List | Glossary Off
Versions: 1 2 3 4 5 6 7 8 9 10 11 12 13 14 15 16 17 18 19 20 21 22

000
FTUS43 KFGF 252300
TAFGFK
TAF
KGFK 252339Z 2600/2624 18008KT P6SM BKN020
     FM260300 19014G18KT P6SM OVC015
     FM260600 19017G25KT P6SM OVC015
     FM260900 30016G24KT P6SM OVC015
     FM261300 31018G25KT P6SM BKN025=

USA.gov is the U.S. government's official web portal to all federal, state and local government web resources and services.